sensor_id;sensor_type;location;lat;lon;timestamp;P1;durP1;ratioP1;P2;durP2;ratioP2
5416;SDS011;2731;50.754;12.990;2023-06-04T00:00:54;3.72;;;2.28;;
5416;SDS011;2731;50.754;12.990;2023-06-04T00:03:20;4.25;;;2.38;;
5416;SDS011;2731;50.754;12.990;2023-06-04T00:05:46;4.68;;;2.83;;
5416;SDS011;2731;50.754;12.990;2023-06-04T00:08:12;5.03;;;2.45;;
5416;SDS011;2731;50.754;12.990;2023-06-04T00:10:38;4.53;;;2.45;;
5416;SDS011;2731;50.754;12.990;2023-06-04T00:13:05;3.03;;;2.45;;
5416;SDS011;2731;50.754;12.990;2023-06-04T00:15:31;3.28;;;2.55;;
5416;SDS011;2731;50.754;12.990;2023-06-04T00:17:57;3.25;;;2.28;;
5416;SDS011;2731;50.754;12.990;2023-06-04T00:20:23;4.22;;;2.60;;
5416;SDS011;2731;50.754;12.990;2023-06-04T00:22:49;7.22;;;3.30;;
5416;SDS011;2731;50.754;12.990;2023-06-04T00:25:15;5.35;;;3.03;;
5416;SDS011;2731;50.754;12.990;2023-06-04T00:27:41;4.30;;;2.03;;
5416;SDS011;2731;50.754;12.990;2023-06-04T00:30:07;5.32;;;2.85;;
5416;SDS011;2731;50.754;12.990;2023-06-04T00:32:34;7.65;;;2.78;;
5416;SDS011;2731;50.754;12.990;2023-06-04T00:35:00;4.00;;;2.42;;
5416;SDS011;2731;50.754;12.990;2023-06-04T00:37:27;7.50;;;2.55;;
5416;SDS011;2731;50.754;12.990;2023-06-04T00:39:53;3.40;;;2.35;;
5416;SDS011;2731;50.754;12.990;2023-06-04T00:42:20;3.45;;;2.50;;
5416;SDS011;2731;50.754;12.990;2023-06-04T00:44:46;4.25;;;2.20;;
5416;SDS011;2731;50.754;12.990;2023-06-04T00:47:15;4.07;;;2.25;;
5416;SDS011;2731;50.754;12.990;2023-06-04T00:49:42;3.28;;;2.30;;
5416;SDS011;2731;50.754;12.990;2023-06-04T00:52:09;4.07;;;2.08;;
5416;SDS011;2731;50.754;12.990;2023-06-04T00:54:35;4.53;;;2.42;;
5416;SDS011;2731;50.754;12.990;2023-06-04T00:57:03;5.57;;;3.05;;
5416;SDS011;2731;50.754;12.990;2023-06-04T00:59:30;5.15;;;2.35;;
5416;SDS011;2731;50.754;12.990;2023-06-04T01:02:02;4.78;;;2.78;;
5416;SDS011;2731;50.754;12.990;2023-06-04T01:04:33;4.95;;;2.13;;
5416;SDS011;2731;50.754;12.990;2023-06-04T01:07:00;4.03;;;2.38;;
5416;SDS011;2731;50.754;12.990;2023-06-04T01:09:31;5.45;;;2.63;;
5416;SDS011;2731;50.754;12.990;2023-06-04T01:11:57;6.50;;;2.60;;
5416;SDS011;2731;50.754;12.990;2023-06-04T01:14:24;3.50;;;2.45;;
5416;SDS011;2731;50.754;12.990;2023-06-04T01:22:01;4.35;;;2.50;;
5416;SDS011;2731;50.754;12.990;2023-06-04T01:24:28;4.50;;;2.90;;
5416;SDS011;2731;50.754;12.990;2023-06-04T01:26:55;4.18;;;3.17;;
5416;SDS011;2731;50.754;12.990;2023-06-04T01:29:22;5.00;;;2.95;;
5416;SDS011;2731;50.754;12.990;2023-06-04T01:31:49;4.07;;;2.80;;
5416;SDS011;2731;50.754;12.990;2023-06-04T01:34:15;4.57;;;2.63;;
5416;SDS011;2731;50.754;12.990;2023-06-04T01:36:41;4.72;;;2.67;;
5416;SDS011;2731;50.754;12.990;2023-06-04T01:39:07;4.10;;;2.35;;
5416;SDS011;2731;50.754;12.990;2023-06-04T01:41:35;4.47;;;2.63;;
5416;SDS011;2731;50.754;12.990;2023-06-04T01:44:01;4.78;;;3.05;;
5416;SDS011;2731;50.754;12.990;2023-06-04T01:46:27;5.82;;;2.95;;
5416;SDS011;2731;50.754;12.990;2023-06-04T01:48:53;4.72;;;3.08;;
5416;SDS011;2731;50.754;12.990;2023-06-04T01:51:19;3.47;;;2.28;;
5416;SDS011;2731;50.754;12.990;2023-06-04T01:53:45;6.05;;;2.63;;
5416;SDS011;2731;50.754;12.990;2023-06-04T01:56:11;4.38;;;2.25;;
5416;SDS011;2731;50.754;12.990;2023-06-04T01:58:38;5.30;;;2.60;;
5416;SDS011;2731;50.754;12.990;2023-06-04T02:01:04;3.40;;;2.42;;
5416;SDS011;2731;50.754;12.990;2023-06-04T02:03:30;3.83;;;2.53;;
5416;SDS011;2731;50.754;12.990;2023-06-04T02:06:02;6.25;;;2.47;;
5416;SDS011;2731;50.754;12.990;2023-06-04T02:08:28;4.35;;;2.72;;
5416;SDS011;2731;50.754;12.990;2023-06-04T02:10:55;3.70;;;2.35;;
5416;SDS011;2731;50.754;12.990;2023-06-04T02:13:21;3.53;;;2.22;;
5416;SDS011;2731;50.754;12.990;2023-06-04T02:15:47;3.38;;;2.75;;
5416;SDS011;2731;50.754;12.990;2023-06-04T02:18:14;4.78;;;2.58;;
5416;SDS011;2731;50.754;12.990;2023-06-04T02:20:42;4.13;;;2.53;;
5416;SDS011;2731;50.754;12.990;2023-06-04T02:23:09;7.03;;;2.70;;
5416;SDS011;2731;50.754;12.990;2023-06-04T02:25:35;3.53;;;2.20;;
5416;SDS011;2731;50.754;12.990;2023-06-04T02:28:01;3.10;;;2.30;;
5416;SDS011;2731;50.754;12.990;2023-06-04T02:30:27;3.83;;;2.67;;
5416;SDS011;2731;50.754;12.990;2023-06-04T02:32:53;3.85;;;2.28;;
5416;SDS011;2731;50.754;12.990;2023-06-04T02:35:20;5.57;;;2.90;;
5416;SDS011;2731;50.754;12.990;2023-06-04T02:37:48;4.53;;;2.30;;
5416;SDS011;2731;50.754;12.990;2023-06-04T02:40:14;5.03;;;2.40;;
5416;SDS011;2731;50.754;12.990;2023-06-04T02:42:40;5.40;;;2.17;;
5416;SDS011;2731;50.754;12.990;2023-06-04T02:45:07;3.90;;;2.20;;
5416;SDS011;2731;50.754;12.990;2023-06-04T02:47:33;3.97;;;2.53;;
5416;SDS011;2731;50.754;12.990;2023-06-04T02:49:59;5.32;;;2.08;;
5416;SDS011;2731;50.754;12.990;2023-06-04T02:52:25;4.80;;;2.33;;
5416;SDS011;2731;50.754;12.990;2023-06-04T02:54:51;4.50;;;2.35;;
5416;SDS011;2731;50.754;12.990;2023-06-04T02:57:17;3.42;;;2.45;;
5416;SDS011;2731;50.754;12.990;2023-06-04T02:59:43;2.95;;;2.13;;
5416;SDS011;2731;50.754;12.990;2023-06-04T03:02:09;3.55;;;1.92;;
5416;SDS011;2731;50.754;12.990;2023-06-04T03:04:36;3.83;;;2.17;;
5416;SDS011;2731;50.754;12.990;2023-06-04T03:07:02;3.45;;;2.33;;
5416;SDS011;2731;50.754;12.990;2023-06-04T03:09:32;3.78;;;2.30;;
5416;SDS011;2731;50.754;12.990;2023-06-04T03:12:02;6.47;;;2.20;;
5416;SDS011;2731;50.754;12.990;2023-06-04T03:14:28;2.65;;;1.90;;
5416;SDS011;2731;50.754;12.990;2023-06-04T03:17:00;3.97;;;2.13;;
5416;SDS011;2731;50.754;12.990;2023-06-04T03:19:32;4.97;;;2.72;;
5416;SDS011;2731;50.754;12.990;2023-06-04T03:21:58;5.30;;;2.58;;
5416;SDS011;2731;50.754;12.990;2023-06-04T03:24:25;3.92;;;2.60;;
5416;SDS011;2731;50.754;12.990;2023-06-04T03:26:51;3.88;;;2.30;;
5416;SDS011;2731;50.754;12.990;2023-06-04T03:29:17;3.20;;;2.17;;
5416;SDS011;2731;50.754;12.990;2023-06-04T03:31:44;3.35;;;2.00;;
5416;SDS011;2731;50.754;12.990;2023-06-04T03:34:10;5.10;;;2.40;;
5416;SDS011;2731;50.754;12.990;2023-06-04T03:36:36;5.65;;;2.30;;
5416;SDS011;2731;50.754;12.990;2023-06-04T03:39:03;3.50;;;2.22;;
5416;SDS011;2731;50.754;12.990;2023-06-04T03:41:29;5.57;;;2.20;;
5416;SDS011;2731;50.754;12.990;2023-06-04T03:43:55;5.10;;;2.38;;
5416;SDS011;2731;50.754;12.990;2023-06-04T03:46:22;3.90;;;2.58;;
5416;SDS011;2731;50.754;12.990;2023-06-04T03:48:51;2.63;;;1.90;;
5416;SDS011;2731;50.754;12.990;2023-06-04T03:51:17;5.70;;;2.75;;
5416;SDS011;2731;50.754;12.990;2023-06-04T03:53:43;5.15;;;2.38;;
5416;SDS011;2731;50.754;12.990;2023-06-04T03:56:09;3.55;;;2.38;;
5416;SDS011;2731;50.754;12.990;2023-06-04T03:58:35;3.30;;;2.28;;
5416;SDS011;2731;50.754;12.990;2023-06-04T04:01:01;4.70;;;2.05;;
5416;SDS011;2731;50.754;12.990;2023-06-04T04:03:29;4.28;;;2.60;;
5416;SDS011;2731;50.754;12.990;2023-06-04T04:05:56;3.60;;;2.38;;
5416;SDS011;2731;50.754;12.990;2023-06-04T04:08:25;3.35;;;2.22;;
5416;SDS011;2731;50.754;12.990;2023-06-04T04:10:59;3.20;;;2.00;;
5416;SDS011;2731;50.754;12.990;2023-06-04T04:13:25;3.40;;;2.33;;
5416;SDS011;2731;50.754;12.990;2023-06-04T04:15:51;4.20;;;2.60;;
5416;SDS011;2731;50.754;12.990;2023-06-04T04:18:22;3.50;;;2.13;;
5416;SDS011;2731;50.754;12.990;2023-06-04T04:20:48;4.80;;;2.10;;
5416;SDS011;2731;50.754;12.990;2023-06-04T04:23:14;2.35;;;1.80;;
5416;SDS011;2731;50.754;12.990;2023-06-04T04:25:42;3.92;;;2.30;;
5416;SDS011;2731;50.754;12.990;2023-06-04T04:28:09;4.75;;;2.60;;
5416;SDS011;2731;50.754;12.990;2023-06-04T04:30:35;4.72;;;2.95;;
5416;SDS011;2731;50.754;12.990;2023-06-04T04:33:02;3.30;;;2.10;;
5416;SDS011;2731;50.754;12.990;2023-06-04T04:35:30;4.38;;;2.72;;
5416;SDS011;2731;50.754;12.990;2023-06-04T04:37:58;2.67;;;1.98;;
5416;SDS011;2731;50.754;12.990;2023-06-04T04:40:24;5.32;;;2.33;;
5416;SDS011;2731;50.754;12.990;2023-06-04T04:42:50;3.88;;;2.30;;
5416;SDS011;2731;50.754;12.990;2023-06-04T04:45:16;5.90;;;2.22;;
5416;SDS011;2731;50.754;12.990;2023-06-04T04:47:42;3.42;;;2.05;;
5416;SDS011;2731;50.754;12.990;2023-06-04T04:50:09;4.88;;;2.45;;
5416;SDS011;2731;50.754;12.990;2023-06-04T04:52:35;3.80;;;2.83;;
5416;SDS011;2731;50.754;12.990;2023-06-04T04:55:02;6.80;;;1.90;;
5416;SDS011;2731;50.754;12.990;2023-06-04T04:57:28;5.15;;;2.55;;
5416;SDS011;2731;50.754;12.990;2023-06-04T04:59:54;3.97;;;2.33;;
5416;SDS011;2731;50.754;12.990;2023-06-04T05:02:20;3.97;;;2.00;;
5416;SDS011;2731;50.754;12.990;2023-06-04T05:04:46;3.72;;;2.05;;
5416;SDS011;2731;50.754;12.990;2023-06-04T05:07:12;5.05;;;1.85;;
5416;SDS011;2731;50.754;12.990;2023-06-04T05:09:39;2.83;;;1.60;;
5416;SDS011;2731;50.754;12.990;2023-06-04T05:12:06;3.65;;;2.08;;
5416;SDS011;2731;50.754;12.990;2023-06-04T05:14:32;4.50;;;1.70;;
5416;SDS011;2731;50.754;12.990;2023-06-04T05:17:00;4.53;;;2.42;;
5416;SDS011;2731;50.754;12.990;2023-06-04T05:19:28;3.33;;;2.03;;
5416;SDS011;2731;50.754;12.990;2023-06-04T05:21:58;3.35;;;1.67;;
5416;SDS011;2731;50.754;12.990;2023-06-04T05:24:25;4.20;;;2.22;;
5416;SDS011;2731;50.754;12.990;2023-06-04T05:26:51;2.33;;;1.42;;
5416;SDS011;2731;50.754;12.990;2023-06-04T05:29:17;3.80;;;2.08;;
5416;SDS011;2731;50.754;12.990;2023-06-04T05:31:43;2.92;;;1.80;;
5416;SDS011;2731;50.754;12.990;2023-06-04T05:34:09;3.50;;;1.98;;
5416;SDS011;2731;50.754;12.990;2023-06-04T05:36:40;3.25;;;1.58;;
5416;SDS011;2731;50.754;12.990;2023-06-04T05:39:06;2.88;;;1.52;;
5416;SDS011;2731;50.754;12.990;2023-06-04T05:41:34;3.65;;;2.03;;
5416;SDS011;2731;50.754;12.990;2023-06-04T05:44:00;4.70;;;1.75;;
5416;SDS011;2731;50.754;12.990;2023-06-04T05:46:27;3.22;;;1.50;;
5416;SDS011;2731;50.754;12.990;2023-06-04T05:48:53;2.33;;;1.30;;
5416;SDS011;2731;50.754;12.990;2023-06-04T05:51:19;3.13;;;1.90;;
5416;SDS011;2731;50.754;12.990;2023-06-04T05:53:46;1.75;;;1.27;;
5416;SDS011;2731;50.754;12.990;2023-06-04T05:56:12;2.80;;;1.63;;
5416;SDS011;2731;50.754;12.990;2023-06-04T05:58:38;2.70;;;1.38;;
5416;SDS011;2731;50.754;12.990;2023-06-04T06:01:04;2.25;;;1.50;;
5416;SDS011;2731;50.754;12.990;2023-06-04T06:03:31;2.20;;;1.35;;
5416;SDS011;2731;50.754;12.990;2023-06-04T06:05:57;2.70;;;1.50;;
5416;SDS011;2731;50.754;12.990;2023-06-04T06:08:25;2.70;;;1.30;;
5416;SDS011;2731;50.754;12.990;2023-06-04T06:10:51;5.45;;;1.80;;
5416;SDS011;2731;50.754;12.990;2023-06-04T06:13:17;2.08;;;1.30;;
5416;SDS011;2731;50.754;12.990;2023-06-04T06:15:43;4.25;;;1.45;;
5416;SDS011;2731;50.754;12.990;2023-06-04T06:18:09;4.07;;;1.70;;
5416;SDS011;2731;50.754;12.990;2023-06-04T06:20:35;2.28;;;1.45;;
5416;SDS011;2731;50.754;12.990;2023-06-04T06:23:07;2.47;;;1.65;;
5416;SDS011;2731;50.754;12.990;2023-06-04T06:25:33;3.83;;;1.35;;
5416;SDS011;2731;50.754;12.990;2023-06-04T06:27:59;2.15;;;1.08;;
5416;SDS011;2731;50.754;12.990;2023-06-04T06:30:25;3.22;;;1.10;;
5416;SDS011;2731;50.754;12.990;2023-06-04T06:32:51;3.60;;;1.20;;
5416;SDS011;2731;50.754;12.990;2023-06-04T06:35:18;2.67;;;1.38;;
5416;SDS011;2731;50.754;12.990;2023-06-04T06:37:44;2.47;;;1.30;;
5416;SDS011;2731;50.754;12.990;2023-06-04T06:40:10;3.17;;;1.20;;
5416;SDS011;2731;50.754;12.990;2023-06-04T06:42:36;1.88;;;1.30;;
5416;SDS011;2731;50.754;12.990;2023-06-04T06:45:03;3.00;;;1.70;;
5416;SDS011;2731;50.754;12.990;2023-06-04T06:47:29;2.25;;;1.23;;
5416;SDS011;2731;50.754;12.990;2023-06-04T06:49:55;5.13;;;2.28;;
5416;SDS011;2731;50.754;12.990;2023-06-04T06:52:21;2.45;;;1.25;;
5416;SDS011;2731;50.754;12.990;2023-06-04T06:54:47;1.98;;;1.27;;
5416;SDS011;2731;50.754;12.990;2023-06-04T06:57:13;3.53;;;1.17;;
5416;SDS011;2731;50.754;12.990;2023-06-04T06:59:40;1.98;;;1.30;;
5416;SDS011;2731;50.754;12.990;2023-06-04T07:02:06;3.17;;;1.27;;
5416;SDS011;2731;50.754;12.990;2023-06-04T07:04:32;3.22;;;1.45;;
5416;SDS011;2731;50.754;12.990;2023-06-04T07:06:58;2.95;;;1.30;;
5416;SDS011;2731;50.754;12.990;2023-06-04T07:09:25;2.30;;;1.50;;
5416;SDS011;2731;50.754;12.990;2023-06-04T07:11:51;2.03;;;1.00;;
5416;SDS011;2731;50.754;12.990;2023-06-04T07:14:17;5.22;;;2.10;;
5416;SDS011;2731;50.754;12.990;2023-06-04T07:16:43;3.38;;;1.25;;
5416;SDS011;2731;50.754;12.990;2023-06-04T07:19:09;3.30;;;1.02;;
5416;SDS011;2731;50.754;12.990;2023-06-04T07:21:36;4.50;;;1.48;;
5416;SDS011;2731;50.754;12.990;2023-06-04T07:24:02;3.05;;;1.15;;
5416;SDS011;2731;50.754;12.990;2023-06-04T07:26:28;2.03;;;1.40;;
5416;SDS011;2731;50.754;12.990;2023-06-04T07:28:56;2.55;;;1.48;;
5416;SDS011;2731;50.754;12.990;2023-06-04T07:31:22;2.88;;;1.67;;
5416;SDS011;2731;50.754;12.990;2023-06-04T07:33:48;2.35;;;1.40;;
5416;SDS011;2731;50.754;12.990;2023-06-04T07:36:15;3.65;;;1.50;;
5416;SDS011;2731;50.754;12.990;2023-06-04T07:38:42;4.50;;;1.60;;
5416;SDS011;2731;50.754;12.990;2023-06-04T07:41:08;2.55;;;1.13;;
5416;SDS011;2731;50.754;12.990;2023-06-04T07:43:34;2.85;;;1.35;;
5416;SDS011;2731;50.754;12.990;2023-06-04T07:46:04;1.65;;;1.25;;
5416;SDS011;2731;50.754;12.990;2023-06-04T07:48:30;2.67;;;1.05;;
5416;SDS011;2731;50.754;12.990;2023-06-04T07:50:57;2.03;;;1.23;;
5416;SDS011;2731;50.754;12.990;2023-06-04T07:53:23;2.42;;;1.77;;
5416;SDS011;2731;50.754;12.990;2023-06-04T07:55:50;3.67;;;1.55;;
5416;SDS011;2731;50.754;12.990;2023-06-04T07:58:16;4.45;;;1.48;;
5416;SDS011;2731;50.754;12.990;2023-06-04T08:00:42;2.97;;;1.35;;
5416;SDS011;2731;50.754;12.990;2023-06-04T08:03:08;4.25;;;1.38;;
5416;SDS011;2731;50.754;12.990;2023-06-04T08:05:35;1.95;;;1.25;;
5416;SDS011;2731;50.754;12.990;2023-06-04T08:08:01;3.17;;;1.10;;
5416;SDS011;2731;50.754;12.990;2023-06-04T08:10:28;2.42;;;1.30;;
5416;SDS011;2731;50.754;12.990;2023-06-04T08:12:55;3.20;;;1.25;;
5416;SDS011;2731;50.754;12.990;2023-06-04T08:15:21;3.08;;;1.30;;
5416;SDS011;2731;50.754;12.990;2023-06-04T08:17:47;1.60;;;1.05;;
5416;SDS011;2731;50.754;12.990;2023-06-04T08:20:13;2.58;;;1.08;;
5416;SDS011;2731;50.754;12.990;2023-06-04T08:22:39;4.15;;;1.45;;
5416;SDS011;2731;50.754;12.990;2023-06-04T08:25:06;5.00;;;1.40;;
5416;SDS011;2731;50.754;12.990;2023-06-04T08:27:33;2.55;;;1.50;;
5416;SDS011;2731;50.754;12.990;2023-06-04T08:29:59;4.63;;;1.38;;
5416;SDS011;2731;50.754;12.990;2023-06-04T08:32:27;4.65;;;1.38;;
5416;SDS011;2731;50.754;12.990;2023-06-04T08:34:54;2.25;;;1.08;;
5416;SDS011;2731;50.754;12.990;2023-06-04T08:37:20;3.08;;;1.55;;
5416;SDS011;2731;50.754;12.990;2023-06-04T08:39:46;8.80;;;1.92;;
5416;SDS011;2731;50.754;12.990;2023-06-04T08:42:15;1.65;;;1.05;;
5416;SDS011;2731;50.754;12.990;2023-06-04T08:44:46;1.92;;;0.98;;
5416;SDS011;2731;50.754;12.990;2023-06-04T08:47:13;1.58;;;1.10;;
5416;SDS011;2731;50.754;12.990;2023-06-04T08:49:41;1.58;;;1.10;;
5416;SDS011;2731;50.754;12.990;2023-06-04T08:52:09;3.55;;;1.45;;
5416;SDS011;2731;50.754;12.990;2023-06-04T08:54:36;3.17;;;1.02;;
5416;SDS011;2731;50.754;12.990;2023-06-04T08:57:02;1.85;;;1.00;;
5416;SDS011;2731;50.754;12.990;2023-06-04T08:59:29;3.80;;;1.40;;
5416;SDS011;2731;50.754;12.990;2023-06-04T09:01:55;1.50;;;1.10;;
5416;SDS011;2731;50.754;12.990;2023-06-04T09:04:21;2.10;;;1.10;;
5416;SDS011;2731;50.754;12.990;2023-06-04T09:06:47;4.43;;;1.40;;
5416;SDS011;2731;50.754;12.990;2023-06-04T09:09:14;3.55;;;1.30;;
5416;SDS011;2731;50.754;12.990;2023-06-04T09:11:47;3.20;;;1.38;;
5416;SDS011;2731;50.754;12.990;2023-06-04T09:14:15;2.38;;;1.30;;
5416;SDS011;2731;50.754;12.990;2023-06-04T09:16:51;3.28;;;1.10;;
5416;SDS011;2731;50.754;12.990;2023-06-04T09:19:17;2.80;;;1.45;;
5416;SDS011;2731;50.754;12.990;2023-06-04T09:21:48;1.00;;;0.80;;
5416;SDS011;2731;50.754;12.990;2023-06-04T09:24:14;1.90;;;1.05;;
5416;SDS011;2731;50.754;12.990;2023-06-04T09:26:40;3.22;;;1.30;;
5416;SDS011;2731;50.754;12.990;2023-06-04T09:29:07;1.30;;;1.20;;
5416;SDS011;2731;50.754;12.990;2023-06-04T09:31:34;2.10;;;1.23;;
5416;SDS011;2731;50.754;12.990;2023-06-04T09:34:05;2.00;;;1.17;;
5416;SDS011;2731;50.754;12.990;2023-06-04T09:36:34;1.70;;;1.13;;
5416;SDS011;2731;50.754;12.990;2023-06-04T09:39:01;2.35;;;1.55;;
5416;SDS011;2731;50.754;12.990;2023-06-04T09:41:28;3.65;;;1.40;;
5416;SDS011;2731;50.754;12.990;2023-06-04T09:44:01;4.47;;;1.65;;
5416;SDS011;2731;50.754;12.990;2023-06-04T09:46:31;3.30;;;1.30;;
5416;SDS011;2731;50.754;12.990;2023-06-04T09:49:04;4.65;;;1.67;;
5416;SDS011;2731;50.754;12.990;2023-06-04T09:51:31;1.73;;;1.30;;
5416;SDS011;2731;50.754;12.990;2023-06-04T09:54:00;2.05;;;1.02;;
5416;SDS011;2731;50.754;12.990;2023-06-04T09:56:27;1.60;;;1.02;;
5416;SDS011;2731;50.754;12.990;2023-06-04T09:58:54;3.30;;;1.60;;
5416;SDS011;2731;50.754;12.990;2023-06-04T10:01:21;1.75;;;1.10;;
5416;SDS011;2731;50.754;12.990;2023-06-04T10:03:48;1.83;;;1.30;;
5416;SDS011;2731;50.754;12.990;2023-06-04T10:06:16;4.35;;;1.42;;
5416;SDS011;2731;50.754;12.990;2023-06-04T10:08:44;1.70;;;1.20;;
5416;SDS011;2731;50.754;12.990;2023-06-04T10:11:11;2.72;;;1.50;;
5416;SDS011;2731;50.754;12.990;2023-06-04T10:13:39;2.83;;;1.40;;
5416;SDS011;2731;50.754;12.990;2023-06-04T10:16:06;2.83;;;1.30;;
5416;SDS011;2731;50.754;12.990;2023-06-04T10:18:32;2.13;;;1.10;;
5416;SDS011;2731;50.754;12.990;2023-06-04T10:20:59;1.35;;;0.95;;
5416;SDS011;2731;50.754;12.990;2023-06-04T10:23:25;1.73;;;1.10;;
5416;SDS011;2731;50.754;12.990;2023-06-04T10:25:52;3.33;;;1.40;;
5416;SDS011;2731;50.754;12.990;2023-06-04T10:28:19;4.53;;;1.40;;
5416;SDS011;2731;50.754;12.990;2023-06-04T10:30:46;2.08;;;1.30;;
5416;SDS011;2731;50.754;12.990;2023-06-04T10:33:12;2.10;;;1.10;;
5416;SDS011;2731;50.754;12.990;2023-06-04T10:35:38;2.60;;;1.70;;
5416;SDS011;2731;50.754;12.990;2023-06-04T10:38:05;2.60;;;1.67;;
5416;SDS011;2731;50.754;12.990;2023-06-04T10:40:32;4.80;;;1.55;;
5416;SDS011;2731;50.754;12.990;2023-06-04T10:43:04;1.60;;;1.42;;
5416;SDS011;2731;50.754;12.990;2023-06-04T10:45:30;3.30;;;1.50;;
5416;SDS011;2731;50.754;12.990;2023-06-04T10:48:00;2.70;;;1.23;;
5416;SDS011;2731;50.754;12.990;2023-06-04T10:50:26;2.38;;;1.42;;
5416;SDS011;2731;50.754;12.990;2023-06-04T10:52:55;2.30;;;1.33;;
5416;SDS011;2731;50.754;12.990;2023-06-04T10:55:23;3.10;;;1.50;;
5416;SDS011;2731;50.754;12.990;2023-06-04T10:57:53;2.13;;;1.40;;
5416;SDS011;2731;50.754;12.990;2023-06-04T11:00:20;1.63;;;1.15;;
5416;SDS011;2731;50.754;12.990;2023-06-04T11:02:50;6.40;;;2.50;;
5416;SDS011;2731;50.754;12.990;2023-06-04T11:05:16;3.50;;;1.63;;
5416;SDS011;2731;50.754;12.990;2023-06-04T11:07:47;1.50;;;1.33;;
5416;SDS011;2731;50.754;12.990;2023-06-04T11:10:14;1.80;;;1.10;;
5416;SDS011;2731;50.754;12.990;2023-06-04T11:12:41;2.90;;;1.50;;
5416;SDS011;2731;50.754;12.990;2023-06-04T11:15:07;3.33;;;1.38;;
5416;SDS011;2731;50.754;12.990;2023-06-04T11:17:34;2.28;;;1.45;;
5416;SDS011;2731;50.754;12.990;2023-06-04T11:20:00;3.33;;;1.40;;
5416;SDS011;2731;50.754;12.990;2023-06-04T11:22:26;6.32;;;1.50;;
5416;SDS011;2731;50.754;12.990;2023-06-04T11:24:59;2.25;;;1.30;;
5416;SDS011;2731;50.754;12.990;2023-06-04T11:27:26;2.75;;;1.48;;
5416;SDS011;2731;50.754;12.990;2023-06-04T11:29:52;9.75;;;2.45;;
5416;SDS011;2731;50.754;12.990;2023-06-04T11:32:22;4.20;;;1.48;;
5416;SDS011;2731;50.754;12.990;2023-06-04T11:34:48;3.45;;;1.40;;
5416;SDS011;2731;50.754;12.990;2023-06-04T11:37:15;2.15;;;1.00;;
5416;SDS011;2731;50.754;12.990;2023-06-04T11:39:41;2.28;;;1.17;;
5416;SDS011;2731;50.754;12.990;2023-06-04T11:42:10;3.22;;;1.60;;
5416;SDS011;2731;50.754;12.990;2023-06-04T11:44:36;1.58;;;1.00;;
5416;SDS011;2731;50.754;12.990;2023-06-04T11:47:10;2.17;;;1.05;;
5416;SDS011;2731;50.754;12.990;2023-06-04T11:49:37;1.45;;;1.17;;
5416;SDS011;2731;50.754;12.990;2023-06-04T11:52:04;3.20;;;1.55;;
5416;SDS011;2731;50.754;12.990;2023-06-04T11:54:30;3.50;;;1.33;;
5416;SDS011;2731;50.754;12.990;2023-06-04T11:57:02;5.47;;;1.60;;
5416;SDS011;2731;50.754;12.990;2023-06-04T11:59:29;3.88;;;1.27;;
5416;SDS011;2731;50.754;12.990;2023-06-04T12:01:56;1.60;;;1.08;;
5416;SDS011;2731;50.754;12.990;2023-06-04T12:04:23;2.17;;;1.35;;
5416;SDS011;2731;50.754;12.990;2023-06-04T12:06:52;2.50;;;1.40;;
5416;SDS011;2731;50.754;12.990;2023-06-04T12:09:22;2.42;;;1.27;;
5416;SDS011;2731;50.754;12.990;2023-06-04T12:11:48;3.47;;;1.20;;
5416;SDS011;2731;50.754;12.990;2023-06-04T12:14:17;2.38;;;1.77;;
5416;SDS011;2731;50.754;12.990;2023-06-04T12:16:56;1.50;;;1.13;;
5416;SDS011;2731;50.754;12.990;2023-06-04T12:19:22;4.55;;;1.50;;
5416;SDS011;2731;50.754;12.990;2023-06-04T12:22:01;3.20;;;1.60;;
5416;SDS011;2731;50.754;12.990;2023-06-04T12:24:28;1.83;;;1.38;;
5416;SDS011;2731;50.754;12.990;2023-06-04T12:27:02;3.88;;;1.40;;
5416;SDS011;2731;50.754;12.990;2023-06-04T12:29:28;1.35;;;0.93;;
5416;SDS011;2731;50.754;12.990;2023-06-04T12:32:04;2.10;;;1.20;;
5416;SDS011;2731;50.754;12.990;2023-06-04T12:34:33;4.75;;;2.15;;
5416;SDS011;2731;50.754;12.990;2023-06-04T12:36:59;4.32;;;2.22;;
5416;SDS011;2731;50.754;12.990;2023-06-04T12:39:25;6.32;;;2.00;;
5416;SDS011;2731;50.754;12.990;2023-06-04T12:41:51;3.13;;;1.52;;
5416;SDS011;2731;50.754;12.990;2023-06-04T12:44:18;3.10;;;1.83;;
5416;SDS011;2731;50.754;12.990;2023-06-04T12:46:44;2.70;;;1.70;;
5416;SDS011;2731;50.754;12.990;2023-06-04T12:49:10;3.10;;;1.30;;
5416;SDS011;2731;50.754;12.990;2023-06-04T12:51:37;3.40;;;1.35;;
5416;SDS011;2731;50.754;12.990;2023-06-04T12:54:04;1.77;;;1.30;;
5416;SDS011;2731;50.754;12.990;2023-06-04T12:56:30;2.40;;;1.40;;
5416;SDS011;2731;50.754;12.990;2023-06-04T12:58:56;2.25;;;1.35;;
5416;SDS011;2731;50.754;12.990;2023-06-04T13:01:23;2.10;;;1.27;;
5416;SDS011;2731;50.754;12.990;2023-06-04T13:03:49;3.83;;;1.45;;
5416;SDS011;2731;50.754;12.990;2023-06-04T13:06:15;1.35;;;1.17;;
5416;SDS011;2731;50.754;12.990;2023-06-04T13:08:41;4.15;;;1.10;;
5416;SDS011;2731;50.754;12.990;2023-06-04T13:11:08;1.25;;;1.15;;
5416;SDS011;2731;50.754;12.990;2023-06-04T13:13:35;2.03;;;1.50;;
5416;SDS011;2731;50.754;12.990;2023-06-04T13:16:01;2.03;;;1.30;;
5416;SDS011;2731;50.754;12.990;2023-06-04T13:18:27;1.95;;;1.35;;
5416;SDS011;2731;50.754;12.990;2023-06-04T13:20:53;3.55;;;1.40;;
5416;SDS011;2731;50.754;12.990;2023-06-04T13:23:20;2.22;;;1.50;;
5416;SDS011;2731;50.754;12.990;2023-06-04T13:25:46;2.42;;;1.55;;
5416;SDS011;2731;50.754;12.990;2023-06-04T13:28:12;3.22;;;1.30;;
5416;SDS011;2731;50.754;12.990;2023-06-04T13:30:38;1.92;;;1.20;;
5416;SDS011;2731;50.754;12.990;2023-06-04T13:33:07;2.65;;;1.30;;
5416;SDS011;2731;50.754;12.990;2023-06-04T13:35:33;2.60;;;1.48;;
5416;SDS011;2731;50.754;12.990;2023-06-04T13:38:00;1.70;;;1.17;;
5416;SDS011;2731;50.754;12.990;2023-06-04T13:40:26;4.15;;;1.88;;
5416;SDS011;2731;50.754;12.990;2023-06-04T13:42:52;1.73;;;1.23;;
5416;SDS011;2731;50.754;12.990;2023-06-04T13:45:18;2.08;;;1.40;;
5416;SDS011;2731;50.754;12.990;2023-06-04T13:47:45;4.18;;;1.38;;
5416;SDS011;2731;50.754;12.990;2023-06-04T13:50:13;1.88;;;1.20;;
5416;SDS011;2731;50.754;12.990;2023-06-04T13:52:39;3.08;;;1.02;;
5416;SDS011;2731;50.754;12.990;2023-06-04T13:55:05;2.80;;;1.20;;
5416;SDS011;2731;50.754;12.990;2023-06-04T13:57:31;1.67;;;1.23;;
5416;SDS011;2731;50.754;12.990;2023-06-04T13:59:57;1.55;;;1.00;;
5416;SDS011;2731;50.754;12.990;2023-06-04T14:02:23;2.58;;;1.30;;
5416;SDS011;2731;50.754;12.990;2023-06-04T14:04:50;3.55;;;1.48;;
5416;SDS011;2731;50.754;12.990;2023-06-04T14:07:16;1.70;;;1.20;;
5416;SDS011;2731;50.754;12.990;2023-06-04T14:09:42;1.77;;;1.10;;
5416;SDS011;2731;50.754;12.990;2023-06-04T14:12:08;2.95;;;1.13;;
5416;SDS011;2731;50.754;12.990;2023-06-04T14:14:34;2.70;;;1.38;;
5416;SDS011;2731;50.754;12.990;2023-06-04T14:17:04;2.70;;;1.27;;
5416;SDS011;2731;50.754;12.990;2023-06-04T14:19:32;3.85;;;1.42;;
5416;SDS011;2731;50.754;12.990;2023-06-04T14:21:58;2.65;;;1.40;;
5416;SDS011;2731;50.754;12.990;2023-06-04T14:24:24;3.00;;;1.20;;
5416;SDS011;2731;50.754;12.990;2023-06-04T14:26:50;2.85;;;1.50;;
5416;SDS011;2731;50.754;12.990;2023-06-04T14:29:16;3.55;;;1.17;;
5416;SDS011;2731;50.754;12.990;2023-06-04T14:31:43;3.95;;;1.20;;
5416;SDS011;2731;50.754;12.990;2023-06-04T14:34:10;1.98;;;1.58;;
5416;SDS011;2731;50.754;12.990;2023-06-04T14:36:36;2.65;;;1.30;;
5416;SDS011;2731;50.754;12.990;2023-06-04T14:39:02;1.67;;;1.30;;
5416;SDS011;2731;50.754;12.990;2023-06-04T14:41:28;1.27;;;1.08;;
5416;SDS011;2731;50.754;12.990;2023-06-04T14:43:55;1.05;;;0.90;;
5416;SDS011;2731;50.754;12.990;2023-06-04T14:46:21;3.20;;;1.17;;
5416;SDS011;2731;50.754;12.990;2023-06-04T14:48:47;5.90;;;1.20;;
5416;SDS011;2731;50.754;12.990;2023-06-04T14:51:13;1.67;;;1.08;;
5416;SDS011;2731;50.754;12.990;2023-06-04T14:53:40;1.77;;;1.00;;
5416;SDS011;2731;50.754;12.990;2023-06-04T14:56:06;1.60;;;1.00;;
5416;SDS011;2731;50.754;12.990;2023-06-04T14:58:32;3.05;;;1.45;;
5416;SDS011;2731;50.754;12.990;2023-06-04T15:00:58;2.35;;;1.13;;
5416;SDS011;2731;50.754;12.990;2023-06-04T15:03:25;1.63;;;1.10;;